الصفحة الرئيسية
METAR-TAF:

METAR-TAF

مطار :

Oral, كازاخستان

دائرة عرض: 51-15N, خط طول: 051-17E, ارتفاع: 36 متر

مراقبة الطقس الحالي

تاريخ ووقت الإصدار 21 دقيقة قبل الساعة 03:30UTC
ريح 8 عقدة من الشمال
درجة الحرارة 20°درجة مئوية
الرطوبة 78%
ضغط 1012 hPa
الرؤية 10 كم أو أكثر
الغيوم لا تقل 1500 م ولا وجود لمزنة ركامية السحاب الأسود

METAR: UARR 160330Z 36004MPS CAVOK 20/16 Q1012 NOSIG RMK QFE755/1007

زمن: 08:51 (03:51 UTC)

توقعات

تاريخ ووقت الإصدار 1ساعة و 51 دقيقة قبل الساعة 02:00UTC
التوقعات صالحة من16 الساعة 03 UTC إلى 16 الساعة 12 UTC
ريح 10 عقدة من الشمال
الرؤية 10 كم أو أكثر
غيوم متفرقة على ارتفاع 3300 قدم
مؤقت
من 16 الساعة 06 UTC إلى 16 الساعة 12 UTC
ريح 12 عقدة من الشمال/الشمال الشرقي تتزايد حتى 23 عقدة
غيوم مفككة على ارتفاع 3300 قدم, مزنة ركامية.
زخات من الأمطار الخفيفة,

TAF: UARR 160200Z 1603/1612 36005MPS 9999 SCT033 TEMPO 1606/1612 02006G12MPS -SHRA BKN033CB

أرصاد الطقس والتوقعات من أكثر من 4000 مطار (تقارير الطقس للمطار METAR والتنبؤ بالطقس بالمطارTAF).

المحطات المتاحة هي النقط الصفراء والحمراء على الخريطة.

حرك المؤشر فوق النقطة لمعرفة اسم المحطة.

ثم انقر لمعرفة أرصاد وتوقعات الطقس.

لتغيير الخارطة: اضغط على الأزرار الخضراء مع رمز الصليب الأسود للتكبير. على الزر الأخضر مع شرطة للتصغير، أو على الأسهم الخضراء للخرائط المجاورة.


METAR-TAF: